createdAt,value
2018-06-15T00:04:32.449Z,15.20
2018-06-15T00:07:00.164Z,15.30
2018-06-15T00:09:27.104Z,15.10
2018-06-15T00:11:54.054Z,15.10
2018-06-15T00:14:20.968Z,15.10
2018-06-15T00:16:47.916Z,15.20
2018-06-15T00:19:14.820Z,15.20
2018-06-15T00:21:41.989Z,15.10
2018-06-15T00:24:09.060Z,15.10
2018-06-15T00:26:35.969Z,15.10
2018-06-15T00:29:02.923Z,15.00
2018-06-15T00:31:29.944Z,15.00
2018-06-15T00:33:56.904Z,15.10
2018-06-15T00:36:24.500Z,15.10
2018-06-15T00:38:51.995Z,15.00
2018-06-15T00:41:18.947Z,14.90
2018-06-15T00:43:45.853Z,14.90
2018-06-15T00:46:13.041Z,15.00
2018-06-15T00:48:39.960Z,14.90
2018-06-15T00:51:08.236Z,14.90
2018-06-15T00:53:35.144Z,14.90
2018-06-15T00:56:02.053Z,14.80
2018-06-15T00:58:29.638Z,14.80
2018-06-15T01:00:57.820Z,14.70
2018-06-15T01:03:24.730Z,14.70
2018-06-15T01:05:51.636Z,14.70
2018-06-15T01:08:18.535Z,14.60
2018-06-15T01:10:46.173Z,14.60
2018-06-15T01:13:13.097Z,14.60
2018-06-15T01:15:40.025Z,14.60
2018-06-15T01:18:07.612Z,14.60
2018-06-15T01:20:34.566Z,14.50
2018-06-15T01:23:01.520Z,14.30
2018-06-15T01:25:28.461Z,14.30
2018-06-15T01:27:55.949Z,14.30
2018-06-15T01:30:23.480Z,14.20
2018-06-15T01:32:51.344Z,14.00
2018-06-15T01:35:18.241Z,14.00
2018-06-15T01:37:45.897Z,13.90
2018-06-15T01:40:13.923Z,13.80
2018-06-15T01:42:41.844Z,13.80
2018-06-15T01:45:09.732Z,13.80
2018-06-15T01:47:36.628Z,13.90
2018-06-15T01:50:04.700Z,13.80
2018-06-15T01:52:31.853Z,13.80
2018-06-15T01:54:58.799Z,13.80
2018-06-15T01:57:26.320Z,13.80
2018-06-15T01:59:53.360Z,13.80
2018-06-15T02:02:20.293Z,13.70
2018-06-15T02:04:48.190Z,13.80
2018-06-15T02:07:15.121Z,13.70
2018-06-15T02:09:42.258Z,13.80
2018-06-15T02:12:09.200Z,13.90
2018-06-15T02:14:36.141Z,13.80
2018-06-15T02:17:03.073Z,13.70
2018-06-15T02:19:30.016Z,13.80
2018-06-15T02:21:57.469Z,13.90
2018-06-15T02:24:24.383Z,13.90
2018-06-15T02:26:52.033Z,13.80
2018-06-15T02:29:19.643Z,13.90
2018-06-15T02:31:46.590Z,13.90
2018-06-15T02:34:14.068Z,13.90
2018-06-15T02:36:40.986Z,13.90
2018-06-15T02:39:09.063Z,13.90
2018-06-15T02:41:36.686Z,13.90
2018-06-15T02:44:03.600Z,13.90
2018-06-15T02:46:30.517Z,13.80
2018-06-15T02:48:57.427Z,13.90
2018-06-15T02:51:24.432Z,13.90
2018-06-15T02:53:51.327Z,13.80
2018-06-15T02:56:18.313Z,13.90
2018-06-15T02:58:45.253Z,13.80
2018-06-15T03:01:12.181Z,13.70
2018-06-15T03:03:39.088Z,13.70
2018-06-15T03:06:06.132Z,13.70
2018-06-15T03:08:33.076Z,13.80
2018-06-15T03:10:59.964Z,13.70
2018-06-15T03:13:26.885Z,13.80
2018-06-15T03:15:54.128Z,13.90
2018-06-15T03:18:21.008Z,13.90
2018-06-15T03:20:47.920Z,13.90
2018-06-15T03:23:14.825Z,14.10
2018-06-15T03:25:41.803Z,14.10
2018-06-15T03:30:35.625Z,14.20
2018-06-15T03:33:02.551Z,14.10
2018-06-15T03:35:30.360Z,14.00
2018-06-15T03:37:57.589Z,14.10
2018-06-15T03:40:24.501Z,14.10
2018-06-15T03:42:51.420Z,14.20
2018-06-15T03:45:18.325Z,14.20
2018-06-15T03:47:45.313Z,14.20
2018-06-15T03:50:12.212Z,14.30
2018-06-15T03:52:40.067Z,14.30
2018-06-15T03:55:07.943Z,14.30
2018-06-15T03:57:35.522Z,14.30
2018-06-15T04:00:02.617Z,14.40
2018-06-15T04:02:30.432Z,14.40
2018-06-15T04:04:57.423Z,14.40
2018-06-15T04:07:24.364Z,14.30
2018-06-15T04:09:51.463Z,14.40
2018-06-15T04:12:18.413Z,14.50
2018-06-15T04:14:45.934Z,14.50
2018-06-15T04:17:12.880Z,14.40
2018-06-15T04:19:41.205Z,14.50
2018-06-15T04:22:08.637Z,14.60
2018-06-15T04:24:35.888Z,14.70
2018-06-15T04:27:03.138Z,14.50
2018-06-15T04:29:30.082Z,14.40
2018-06-15T04:31:57.841Z,14.50
2018-06-15T04:34:24.759Z,14.50
2018-06-15T04:36:51.680Z,14.50
2018-06-15T04:39:18.876Z,14.70
2018-06-15T04:41:45.807Z,14.80
2018-06-15T04:44:13.311Z,14.80
2018-06-15T04:46:40.264Z,14.90
2018-06-15T04:49:07.195Z,14.90
2018-06-15T04:51:34.748Z,15.00
2018-06-15T04:54:01.674Z,15.00
2018-06-15T04:56:29.248Z,15.00
2018-06-15T04:58:56.369Z,15.10
2018-06-15T05:01:23.515Z,15.10
2018-06-15T05:06:17.332Z,15.20
2018-06-15T05:08:44.325Z,15.30
2018-06-15T05:11:11.336Z,15.30
2018-06-15T05:13:38.838Z,15.40
2018-06-15T05:16:06.422Z,15.50
2018-06-15T05:18:33.354Z,15.60
2018-06-15T05:21:00.953Z,15.60
2018-06-15T05:23:27.904Z,15.70
2018-06-15T05:25:54.879Z,15.70
2018-06-15T05:28:21.762Z,15.60
2018-06-15T05:30:48.884Z,15.70
2018-06-15T05:33:16.400Z,15.80
2018-06-15T05:35:43.348Z,16.00
2018-06-15T05:38:10.297Z,16.00
2018-06-15T05:40:37.236Z,16.20
2018-06-15T05:43:04.273Z,16.20
2018-06-15T05:45:31.518Z,16.20
2018-06-15T05:47:59.020Z,16.20
2018-06-15T05:50:25.952Z,16.20
2018-06-15T05:52:52.976Z,16.30
2018-06-15T05:55:19.879Z,16.30
2018-06-15T05:57:46.776Z,16.40
2018-06-15T06:00:13.802Z,16.40
2018-06-15T06:02:41.097Z,16.60
2018-06-15T06:05:08.021Z,16.70
2018-06-15T06:07:34.944Z,16.90
2018-06-15T06:10:02.752Z,17.00
2018-06-15T06:12:29.677Z,17.00
2018-06-15T06:14:56.602Z,17.00
2018-06-15T06:17:23.513Z,17.10
2018-06-15T06:19:50.440Z,17.30
2018-06-15T06:22:17.347Z,17.40
2018-06-15T06:24:44.247Z,17.30
2018-06-15T06:27:11.203Z,17.30
2018-06-15T06:29:38.131Z,17.40
2018-06-15T06:32:05.088Z,17.60
2018-06-15T06:34:32.260Z,17.80
2018-06-15T06:36:59.206Z,17.90
2018-06-15T06:39:26.132Z,17.80
2018-06-15T06:41:53.078Z,18.00
2018-06-15T06:44:20.028Z,18.10
2018-06-15T06:46:47.179Z,18.50
2018-06-15T06:49:14.752Z,19.30
2018-06-15T06:51:41.936Z,20.10
2018-06-15T06:54:08.840Z,20.90
2018-06-15T06:56:35.771Z,21.30
2018-06-15T06:59:02.668Z,21.50
2018-06-15T07:01:29.612Z,21.80
2018-06-15T07:03:56.797Z,22.10
2018-06-15T07:06:23.911Z,22.10
2018-06-15T07:08:50.780Z,21.80
2018-06-15T07:11:17.695Z,21.90
2018-06-15T07:13:44.621Z,21.60
2018-06-15T07:16:11.512Z,21.40
2018-06-15T07:18:38.495Z,21.10
2018-06-15T07:21:05.401Z,20.90
2018-06-15T07:23:32.615Z,20.80
2018-06-15T07:25:59.504Z,20.90
2018-06-15T07:28:26.497Z,21.20
2018-06-15T07:30:53.397Z,21.20
2018-06-15T07:33:20.310Z,21.00
2018-06-15T07:35:47.217Z,21.00
2018-06-15T07:38:14.300Z,21.10
2018-06-15T07:40:41.219Z,21.20
2018-06-15T07:43:08.126Z,21.20
2018-06-15T07:45:35.044Z,21.20
2018-06-15T07:48:02.173Z,21.20
2018-06-15T07:50:29.108Z,21.40
2018-06-15T07:52:56.243Z,21.80
2018-06-15T07:55:23.130Z,21.60
2018-06-15T07:57:50.041Z,21.30
2018-06-15T08:00:16.957Z,21.50
2018-06-15T08:02:43.910Z,21.40
2018-06-15T08:05:10.848Z,21.60
2018-06-15T08:07:37.759Z,21.70
2018-06-15T08:10:04.758Z,21.90
2018-06-15T08:12:31.663Z,22.00
2018-06-15T08:14:58.566Z,22.10
2018-06-15T08:17:25.563Z,22.50
2018-06-15T08:19:52.472Z,22.50
2018-06-15T08:22:19.388Z,22.70
2018-06-15T08:24:46.315Z,22.30
2018-06-15T08:27:13.219Z,22.40
2018-06-15T08:29:40.158Z,22.70
2018-06-15T08:32:07.062Z,23.00
2018-06-15T08:34:33.998Z,23.10
2018-06-15T08:37:00.887Z,23.40
2018-06-15T08:39:27.831Z,23.60
2018-06-15T08:41:54.764Z,23.10
2018-06-15T08:44:21.676Z,23.00
2018-06-15T08:46:49.166Z,22.50
2018-06-15T08:49:16.195Z,22.50
2018-06-15T08:51:43.180Z,22.50
2018-06-15T08:54:10.136Z,22.20
2018-06-15T08:56:37.116Z,22.20
2018-06-15T08:59:04.029Z,22.30
2018-06-15T09:01:30.971Z,22.70
2018-06-15T09:03:58.167Z,22.70
2018-06-15T09:06:25.394Z,22.50
2018-06-15T09:08:52.515Z,22.40
2018-06-15T09:11:19.411Z,22.40
2018-06-15T09:13:46.308Z,22.40
2018-06-15T09:16:13.288Z,22.60
2018-06-15T09:18:40.243Z,22.40
2018-06-15T09:21:07.184Z,22.40
2018-06-15T09:23:34.100Z,22.60
2018-06-15T09:26:01.035Z,22.90
2018-06-15T09:28:27.977Z,23.10
2018-06-15T09:30:54.905Z,23.50
2018-06-15T09:33:21.800Z,23.70
2018-06-15T09:35:49.530Z,23.90
2018-06-15T09:38:16.423Z,23.90
2018-06-15T09:40:43.467Z,23.50
2018-06-15T09:43:10.417Z,23.30
2018-06-15T09:45:37.474Z,23.20
2018-06-15T09:48:04.851Z,23.30
2018-06-15T09:50:31.825Z,23.90
2018-06-15T09:52:58.825Z,24.20
2018-06-15T09:55:25.696Z,24.60
2018-06-15T09:57:52.744Z,24.50
2018-06-15T10:00:25.275Z,24.70
2018-06-15T10:02:52.183Z,24.70
2018-06-15T10:05:19.128Z,24.70
2018-06-15T10:07:46.136Z,24.50
2018-06-15T10:10:13.051Z,23.80
2018-06-15T10:12:39.974Z,23.80
2018-06-15T10:15:06.879Z,23.60
2018-06-15T10:17:33.789Z,23.90
2018-06-15T10:20:00.706Z,23.80
2018-06-15T10:22:27.603Z,24.00
2018-06-15T10:24:54.520Z,24.00
2018-06-15T10:27:21.623Z,24.20
2018-06-15T10:29:48.535Z,24.20
2018-06-15T10:32:15.508Z,24.20
2018-06-15T10:34:42.407Z,24.10
2018-06-15T10:37:09.322Z,24.40
2018-06-15T10:39:36.287Z,24.80
2018-06-15T10:42:03.199Z,25.10
2018-06-15T10:44:30.133Z,25.30
2018-06-15T10:46:57.080Z,25.60
2018-06-15T10:49:24.029Z,25.70
2018-06-15T10:51:50.988Z,25.90
2018-06-15T10:54:17.912Z,26.00
2018-06-15T10:56:44.857Z,25.80
2018-06-15T10:59:11.810Z,25.10
2018-06-15T11:01:38.755Z,25.10
2018-06-15T11:04:06.038Z,24.90
2018-06-15T11:06:33.513Z,24.90
2018-06-15T11:11:27.302Z,25.20
2018-06-15T11:13:55.236Z,25.50
2018-06-15T11:16:22.141Z,25.80
2018-06-15T11:18:49.152Z,25.90
2018-06-15T11:21:16.073Z,25.50
2018-06-15T11:23:42.983Z,25.10
2018-06-15T11:26:09.935Z,25.00
2018-06-15T11:28:36.876Z,25.00
2018-06-15T11:31:03.837Z,24.80
2018-06-15T11:33:31.012Z,24.80
2018-06-15T11:35:57.964Z,25.00
2018-06-15T11:38:24.954Z,25.10
2018-06-15T11:40:51.935Z,25.40
2018-06-15T11:43:18.881Z,25.50
2018-06-15T11:45:45.804Z,25.50
2018-06-15T11:48:12.800Z,25.40
2018-06-15T11:50:39.715Z,25.50
2018-06-15T11:53:06.925Z,25.70
2018-06-15T11:55:33.865Z,25.60
2018-06-15T11:58:01.069Z,25.70
2018-06-15T12:00:28.010Z,25.60
2018-06-15T12:02:54.952Z,25.10
2018-06-15T12:05:21.852Z,25.00
2018-06-15T12:07:49.295Z,24.90
2018-06-15T12:10:16.481Z,25.00
2018-06-15T12:12:43.413Z,24.70
2018-06-15T12:15:10.362Z,24.60
2018-06-15T12:17:37.306Z,24.80
2018-06-15T12:20:04.264Z,25.00
2018-06-15T12:22:31.432Z,25.10
2018-06-15T12:24:58.508Z,25.20
2018-06-15T12:27:26.498Z,25.30
2018-06-15T12:29:53.418Z,25.40
2018-06-15T12:32:20.386Z,25.50
2018-06-15T12:34:47.306Z,25.20
2018-06-15T12:37:14.259Z,24.80
2018-06-15T12:39:42.249Z,24.80
2018-06-15T12:42:09.184Z,25.00
2018-06-15T12:44:36.593Z,25.30
2018-06-15T12:47:03.488Z,25.50
2018-06-15T12:49:30.442Z,25.50
2018-06-15T12:51:57.373Z,25.40
2018-06-15T12:54:24.351Z,25.40
2018-06-15T12:56:51.311Z,25.60
2018-06-15T12:59:18.252Z,25.50
2018-06-15T13:01:45.416Z,25.40
2018-06-15T13:04:12.335Z,25.30
2018-06-15T13:06:39.251Z,25.20
2018-06-15T13:09:06.637Z,25.10
2018-06-15T13:11:33.549Z,25.00
2018-06-15T13:14:00.934Z,24.70
2018-06-15T13:16:28.087Z,24.60
2018-06-15T13:18:55.046Z,24.90
2018-06-15T13:21:22.209Z,24.70
2018-06-15T13:23:49.115Z,24.80
2018-06-15T13:26:16.692Z,25.00
2018-06-15T13:28:43.743Z,25.30
2018-06-15T13:31:10.649Z,25.20
2018-06-15T13:33:37.763Z,25.00
2018-06-15T13:36:04.719Z,24.90
2018-06-15T13:38:31.894Z,25.10
2018-06-15T13:40:58.802Z,25.00
2018-06-15T13:43:25.739Z,25.00
2018-06-15T13:45:52.663Z,25.10
2018-06-15T13:48:19.604Z,25.20
2018-06-15T13:50:47.347Z,25.20
2018-06-15T13:53:14.290Z,25.20
2018-06-15T13:55:41.854Z,25.30
2018-06-15T13:58:15.572Z,25.40
2018-06-15T14:00:42.595Z,25.50
2018-06-15T14:03:09.516Z,25.50
2018-06-15T14:05:36.464Z,25.60
2018-06-15T14:08:03.461Z,25.70
2018-06-15T14:10:30.414Z,25.70
2018-06-15T14:12:57.353Z,25.60
2018-06-15T14:15:24.263Z,25.70
2018-06-15T14:17:51.195Z,25.50
2018-06-15T14:20:18.086Z,25.40
2018-06-15T14:22:44.994Z,25.30
2018-06-15T14:25:12.419Z,25.30
2018-06-15T14:27:40.087Z,25.30
2018-06-15T14:30:07.001Z,25.30
2018-06-15T14:32:33.919Z,25.30
2018-06-15T14:35:00.845Z,25.30
2018-06-15T14:37:27.756Z,25.10
2018-06-15T14:39:54.715Z,25.10
2018-06-15T14:42:22.363Z,24.90
2018-06-15T14:47:16.378Z,25.00
2018-06-15T14:49:43.301Z,25.00
2018-06-15T14:52:10.937Z,25.10
2018-06-15T14:54:37.936Z,25.30
2018-06-15T14:57:04.866Z,25.30
2018-06-15T14:59:31.779Z,25.20
2018-06-15T15:01:58.816Z,25.00
2018-06-15T15:04:25.723Z,25.10
2018-06-15T15:06:52.652Z,24.90
2018-06-15T15:09:19.580Z,24.90
2018-06-15T15:11:46.519Z,24.80
2018-06-15T15:14:13.453Z,24.80
2018-06-15T15:16:40.399Z,24.70
2018-06-15T15:19:08.142Z,24.70
2018-06-15T15:21:35.279Z,24.70
2018-06-15T15:24:02.887Z,24.50
2018-06-15T15:26:29.803Z,24.30
2018-06-15T15:28:56.719Z,24.20
2018-06-15T15:31:23.729Z,24.30
2018-06-15T15:33:50.656Z,24.20
2018-06-15T15:36:18.071Z,24.20
2018-06-15T15:38:45.498Z,24.30
2018-06-15T15:41:13.273Z,24.20
2018-06-15T15:43:40.223Z,24.10
2018-06-15T15:46:07.631Z,24.20
2018-06-15T15:48:35.218Z,24.20
2018-06-15T15:51:02.748Z,24.00
2018-06-15T15:53:29.872Z,24.00
2018-06-15T15:55:56.827Z,24.10
2018-06-15T15:58:23.734Z,24.20
2018-06-15T16:00:51.505Z,24.20
2018-06-15T16:03:18.417Z,24.10
2018-06-15T16:05:45.356Z,24.00
2018-06-15T16:08:12.272Z,24.00
2018-06-15T16:13:06.708Z,24.00
2018-06-15T16:15:33.624Z,23.90
2018-06-15T16:18:00.574Z,23.70
2018-06-15T16:20:27.555Z,23.70
2018-06-15T16:22:54.481Z,23.70
2018-06-15T16:25:21.391Z,23.70
2018-06-15T16:27:48.293Z,23.70
2018-06-15T16:30:15.840Z,23.70
2018-06-15T16:32:42.995Z,23.70
2018-06-15T16:35:09.942Z,23.60
2018-06-15T16:37:36.872Z,23.60
2018-06-15T16:40:03.828Z,23.60
2018-06-15T16:42:30.755Z,23.60
2018-06-15T16:44:58.126Z,23.50
2018-06-15T16:47:25.084Z,23.40
2018-06-15T16:49:52.292Z,23.40
2018-06-15T16:52:19.221Z,23.20
2018-06-15T16:54:46.139Z,23.10
2018-06-15T16:57:13.064Z,23.10
2018-06-15T16:59:40.008Z,23.20
2018-06-15T17:02:07.429Z,23.20
2018-06-15T17:04:34.332Z,23.10
2018-06-15T17:07:01.831Z,23.10
2018-06-15T17:09:28.985Z,23.10
2018-06-15T17:11:55.901Z,23.00
2018-06-15T17:14:22.872Z,23.00
2018-06-15T17:16:56.680Z,22.90
2018-06-15T17:19:23.664Z,22.90
2018-06-15T17:21:50.830Z,23.00
2018-06-15T17:24:18.170Z,23.00
2018-06-15T17:26:45.087Z,22.90
2018-06-15T17:29:12.335Z,22.90
2018-06-15T17:31:39.311Z,22.90
2018-06-15T17:34:06.206Z,22.80
2018-06-15T17:36:33.830Z,22.90
2018-06-15T17:39:00.732Z,22.80
2018-06-15T17:41:27.679Z,22.80
2018-06-15T17:43:54.632Z,22.80
2018-06-15T17:46:21.613Z,22.80
2018-06-15T17:48:49.508Z,22.70
2018-06-15T17:53:44.367Z,22.70
2018-06-15T17:56:11.494Z,22.70
2018-06-15T17:58:38.448Z,22.70
2018-06-15T18:01:05.898Z,22.70
2018-06-15T18:03:33.533Z,22.60
2018-06-15T18:06:00.420Z,22.60
2018-06-15T18:08:27.417Z,22.60
2018-06-15T18:10:54.915Z,22.50
2018-06-15T18:13:23.213Z,22.50
2018-06-15T18:15:50.112Z,22.60
2018-06-15T18:18:17.464Z,22.50
2018-06-15T18:20:44.433Z,22.50
2018-06-15T18:23:11.617Z,22.60
2018-06-15T18:25:38.540Z,22.50
2018-06-15T18:28:05.489Z,22.50
2018-06-15T18:30:32.637Z,22.40
2018-06-15T18:32:59.651Z,22.50
2018-06-15T18:35:26.815Z,22.50
2018-06-15T18:37:54.001Z,22.50
2018-06-15T18:40:20.966Z,22.10
2018-06-15T18:42:47.891Z,22.00
2018-06-15T18:45:15.091Z,22.00
2018-06-15T18:47:42.623Z,22.00
2018-06-15T18:50:09.590Z,21.90
2018-06-15T18:52:37.362Z,21.70
2018-06-15T18:55:04.291Z,21.70
2018-06-15T18:57:31.229Z,21.70
2018-06-15T19:02:25.139Z,21.50
2018-06-15T19:04:52.323Z,21.40
2018-06-15T19:07:19.274Z,21.40
2018-06-15T19:09:46.728Z,21.30
2018-06-15T19:12:13.677Z,21.30
2018-06-15T19:14:40.616Z,21.20
2018-06-15T19:17:07.576Z,21.20
2018-06-15T19:19:34.506Z,21.10
2018-06-15T19:22:01.461Z,21.00
2018-06-15T19:24:29.213Z,20.90
2018-06-15T19:26:56.186Z,20.80
2018-06-15T19:29:23.145Z,20.60
2018-06-15T19:31:50.119Z,20.50
2018-06-15T19:34:17.040Z,20.50
2018-06-15T19:36:44.010Z,20.50
2018-06-15T19:39:10.948Z,20.50
2018-06-15T19:41:37.864Z,20.30
2018-06-15T19:44:05.132Z,20.20
2018-06-15T19:46:32.154Z,20.20
2018-06-15T19:48:59.058Z,20.10
2018-06-15T19:51:25.980Z,20.00
2018-06-15T19:53:52.884Z,19.90
2018-06-15T19:56:19.794Z,19.80
2018-06-15T19:58:46.793Z,19.60
2018-06-15T20:01:13.725Z,19.50
2018-06-15T20:03:40.649Z,19.40
2018-06-15T20:06:07.580Z,19.40
2018-06-15T20:08:34.500Z,19.30
2018-06-15T20:11:01.445Z,19.10
2018-06-15T20:13:28.338Z,19.10
2018-06-15T20:15:56.088Z,19.10
2018-06-15T20:18:23.223Z,19.00
2018-06-15T20:20:50.606Z,18.90
2018-06-15T20:23:17.585Z,18.90
2018-06-15T20:25:45.460Z,18.80
2018-06-15T20:28:12.400Z,18.90
2018-06-15T20:30:39.341Z,18.80
2018-06-15T20:33:06.831Z,18.70
2018-06-15T20:35:33.756Z,18.70
2018-06-15T20:38:00.693Z,18.60
2018-06-15T20:40:27.648Z,18.50
2018-06-15T20:42:54.592Z,18.50
2018-06-15T20:45:21.536Z,18.40
2018-06-15T20:47:48.539Z,18.30
2018-06-15T20:50:17.566Z,18.30
2018-06-15T20:52:45.023Z,18.20
2018-06-15T20:55:11.914Z,18.10
2018-06-15T20:57:38.872Z,18.10
2018-06-15T21:00:05.822Z,17.90
2018-06-15T21:02:32.749Z,17.90
2018-06-15T21:04:59.676Z,18.00
2018-06-15T21:07:26.584Z,18.10
2018-06-15T21:09:53.500Z,18.00
2018-06-15T21:12:20.408Z,17.90
2018-06-15T21:14:47.312Z,18.00
2018-06-15T21:17:14.275Z,18.00
2018-06-15T21:19:42.089Z,18.00
2018-06-15T21:22:09.013Z,17.90
2018-06-15T21:24:35.965Z,17.90
2018-06-15T21:27:02.900Z,17.80
2018-06-15T21:29:29.852Z,17.80
2018-06-15T21:31:57.636Z,17.80
2018-06-15T21:34:24.560Z,17.70
2018-06-15T21:36:51.473Z,17.50
2018-06-15T21:39:18.979Z,17.60
2018-06-15T21:41:45.901Z,17.60
2018-06-15T21:44:12.852Z,17.50
2018-06-15T21:46:39.803Z,17.40
2018-06-15T21:49:06.743Z,17.40
2018-06-15T21:51:33.947Z,17.50
2018-06-15T21:54:01.249Z,17.40
2018-06-15T21:56:28.249Z,17.40
2018-06-15T21:58:55.260Z,17.40
2018-06-15T22:01:24.489Z,17.30
2018-06-15T22:03:51.445Z,17.30
2018-06-15T22:06:18.372Z,17.10
2018-06-15T22:08:45.280Z,17.00
2018-06-15T22:11:12.180Z,17.00
2018-06-15T22:13:39.785Z,16.90
2018-06-15T22:16:06.758Z,16.80
2018-06-15T22:18:33.769Z,16.80
2018-06-15T22:21:06.869Z,16.70
2018-06-15T22:23:33.805Z,16.70
2018-06-15T22:26:01.431Z,16.70
2018-06-15T22:28:28.332Z,16.70
2018-06-15T22:30:55.260Z,16.70
2018-06-15T22:33:22.283Z,16.70
2018-06-15T22:35:49.169Z,16.70
2018-06-15T22:38:16.132Z,16.50
2018-06-15T22:40:43.028Z,16.50
2018-06-15T22:43:10.000Z,16.50
2018-06-15T22:45:36.908Z,16.50
2018-06-15T22:48:04.188Z,16.60
2018-06-15T22:50:31.141Z,16.50
2018-06-15T22:52:58.315Z,16.60
2018-06-15T22:55:25.245Z,16.50
2018-06-15T22:57:52.251Z,16.60
2018-06-15T23:00:23.953Z,16.50
2018-06-15T23:02:50.877Z,16.50
2018-06-15T23:07:44.661Z,16.20
2018-06-15T23:10:11.586Z,16.10
2018-06-15T23:12:38.566Z,16.00
2018-06-15T23:15:05.484Z,16.00
2018-06-15T23:17:32.456Z,16.00
2018-06-15T23:19:59.395Z,16.00
2018-06-15T23:22:26.889Z,16.00
2018-06-15T23:24:54.437Z,15.90
2018-06-15T23:27:21.364Z,15.80
2018-06-15T23:29:48.308Z,15.80
2018-06-15T23:32:15.385Z,15.80
2018-06-15T23:34:42.332Z,16.00
2018-06-15T23:37:09.276Z,15.90
2018-06-15T23:39:36.218Z,15.90
2018-06-15T23:42:03.156Z,15.90
2018-06-15T23:44:30.102Z,15.90
2018-06-15T23:46:57.723Z,15.90
2018-06-15T23:51:52.332Z,15.70
2018-06-15T23:54:19.269Z,15.70
2018-06-15T23:56:47.168Z,15.60
2018-06-15T23:59:14.132Z,15.50
